Погода Элиас-Фаустуна неделю

Сан-Паулу, Бразилия

18 - 24 июля
  • 18июля
    Сегодня
    +11°
    +26°
    Ясно и безоблачно
    ВремяПогодаТемператураВлажностьДавлениеВетер, м/сВероятность осадков
    00:00Ясно и безоблачно+17°C91 %714 мм1.8 м/с5 %
    03:00Ясно и безоблачно+15°C92 %713 мм1.3 м/с5 %
    06:00Ясно и безоблачно+14°C94 %713 мм1.1 м/с5 %
    09:00Ясно и безоблачно+17°C76 %715 мм0.4 м/с5 %
    12:00Ясно и безоблачно+23°C53 %715 мм0.4 м/с5 %
    15:00Ясно и безоблачно+26°C44 %714 мм1.3 м/с5 %
    18:00Ясно и безоблачно+24°C58 %714 мм1.6 м/с4 %
    21:00Ясно и безоблачно+18°C92 %715 мм2.9 м/с5 %
  • 19июля
    Пятница
    +12°
    +27°
    Ясно и безоблачно
    ВремяПогодаТемператураВлажностьДавлениеВетер, м/сВероятность осадков
    00:00Ясно и безоблачно+16°C96 %715 мм3.0 м/с5 %
    03:00Ясно и безоблачно+14°C94 %714 мм2.2 м/с5 %
    06:00Практически безоблачно+13°C95 %715 мм2.3 м/с5 %
    09:00Ясно и безоблачно+15°C82 %717 мм1.8 м/с5 %
    12:00Ясно и безоблачно+22°C59 %717 мм1.4 м/с5 %
    15:00Ясно и безоблачно+26°C44 %716 мм1.4 м/с5 %
    18:00Ясно и безоблачно+23°C60 %715 мм2.1 м/с5 %
    21:00Ясно и безоблачно+17°C79 %715 мм2.0 м/с5 %
  • 20июля
    Суббота
    +12°
    +27°
    Ясно и безоблачно
    ВремяПогодаТемператураВлажностьДавлениеВетер, м/сВероятность осадков
    00:00Ясно и безоблачно+15°C91 %715 мм2.3 м/с5 %
    03:00Практически безоблачно+14°C98 %714 мм2.0 м/с5 %
    06:00Пасмурно, сплошная облачность+13°C99 %715 мм2.1 м/с5 %
    09:00Небольшая облачность+14°C88 %716 мм1.8 м/с5 %
    12:00Ясно и безоблачно+22°C59 %716 мм2.0 м/с5 %
    15:00Ясно и безоблачно+26°C43 %714 мм0.4 м/с5 %
    18:00Ясно и безоблачно+22°C63 %714 мм2.1 м/с5 %
    21:00Ясно и безоблачно+18°C82 %714 мм3.2 м/с5 %
  • 21июля
    Воскресенье
    +13°
    +27°
    Ясно и безоблачно
    ВремяПогодаТемператураВлажностьДавлениеВетер, м/сВероятность осадков
    00:00Ясно и безоблачно+15°C93 %715 мм2.7 м/с5 %
    03:00Ясно и безоблачно+14°C97 %713 мм1.8 м/с5 %
    06:00Практически безоблачно+12°C99 %713 мм1.6 м/с5 %
    09:00Ясно и безоблачно+16°C82 %715 мм1.6 м/с5 %
    12:00Ясно и безоблачно+24°C57 %715 мм0.7 м/с5 %
    15:00Ясно и безоблачно+27°C45 %714 мм0.7 м/с5 %
    18:00Ясно и безоблачно+26°C56 %714 мм0.7 м/с5 %
    21:00Ясно и безоблачно+19°C83 %713 мм2.4 м/с5 %
Мы используем cookies
Соглашаюсь